sensor_id;sensor_type;location;lat;lon;timestamp;pressure;altitude;pressure_sealevel;temperature;humidity
45247;BME280;31529;51.158;7.354;2023-06-10T00:00:26;97827.13;;;21.91;51.76
45247;BME280;31529;51.158;7.354;2023-06-10T00:00:58;97827.13;;;21.91;51.62
45247;BME280;31529;51.158;7.354;2023-06-10T00:01:30;97828.28;;;21.90;51.84
45247;BME280;31529;51.158;7.354;2023-06-10T00:02:01;97827.47;;;21.89;51.88
45247;BME280;31529;51.158;7.354;2023-06-10T00:02:32;97820.47;;;21.88;51.85
45247;BME280;31529;51.158;7.354;2023-06-10T00:03:03;97830.56;;;21.88;51.92
45247;BME280;31529;51.158;7.354;2023-06-10T00:03:35;97827.84;;;21.88;51.85
45247;BME280;31529;51.158;7.354;2023-06-10T00:04:06;97820.84;;;21.87;51.81
45247;BME280;31529;51.158;7.354;2023-06-10T00:04:38;97822.00;;;21.86;51.92
45247;BME280;31529;51.158;7.354;2023-06-10T00:05:09;97821.19;;;21.85;51.97
45247;BME280;31529;51.158;7.354;2023-06-10T00:05:40;97823.13;;;21.84;51.89
45247;BME280;31529;51.158;7.354;2023-06-10T00:06:11;97824.28;;;21.83;51.96
45247;BME280;31529;51.158;7.354;2023-06-10T00:06:43;97824.28;;;21.83;52.03
45247;BME280;31529;51.158;7.354;2023-06-10T00:07:14;97825.44;;;21.82;52.11
45247;BME280;31529;51.158;7.354;2023-06-10T00:07:45;97823.84;;;21.81;51.96
45247;BME280;31529;51.158;7.354;2023-06-10T00:08:16;97818.78;;;21.80;51.83
45247;BME280;31529;51.158;7.354;2023-06-10T00:08:50;97827.72;;;21.80;51.84
45247;BME280;31529;51.158;7.354;2023-06-10T00:09:21;97818.78;;;21.80;52.14
45247;BME280;31529;51.158;7.354;2023-06-10T00:09:53;97817.22;;;21.79;51.88
45247;BME280;31529;51.158;7.354;2023-06-10T00:10:25;97826.53;;;21.78;52.09
45247;BME280;31529;51.158;7.354;2023-06-10T00:10:57;97824.59;;;21.78;51.89
45247;BME280;31529;51.158;7.354;2023-06-10T00:11:28;97824.94;;;21.77;51.81
45247;BME280;31529;51.158;7.354;2023-06-10T00:11:59;97823.00;;;21.77;52.07
45247;BME280;31529;51.158;7.354;2023-06-10T00:12:31;97821.44;;;21.76;51.81
45247;BME280;31529;51.158;7.354;2023-06-10T00:13:07;97826.88;;;21.76;51.83
45247;BME280;31529;51.158;7.354;2023-06-10T00:13:39;97821.44;;;21.76;52.10
45247;BME280;31529;51.158;7.354;2023-06-10T00:14:11;97825.72;;;21.77;52.02
45247;BME280;31529;51.158;7.354;2023-06-10T00:14:42;97824.16;;;21.76;52.08
45247;BME280;31529;51.158;7.354;2023-06-10T00:15:13;97829.59;;;21.76;52.08
45247;BME280;31529;51.158;7.354;2023-06-10T00:15:44;97821.81;;;21.75;52.07
45247;BME280;31529;51.158;7.354;2023-06-10T00:16:15;97819.88;;;21.75;52.03
45247;BME280;31529;51.158;7.354;2023-06-10T00:16:48;97823.75;;;21.74;52.05
45247;BME280;31529;51.158;7.354;2023-06-10T00:17:20;97823.34;;;21.76;51.87
45247;BME280;31529;51.158;7.354;2023-06-10T00:17:54;97828.00;;;21.75;51.96
45247;BME280;31529;51.158;7.354;2023-06-10T00:18:25;97819.09;;;21.75;51.81
45247;BME280;31529;51.158;7.354;2023-06-10T00:18:58;97828.00;;;21.75;51.83
45247;BME280;31529;51.158;7.354;2023-06-10T00:19:32;97821.03;;;21.74;52.00
45247;BME280;31529;51.158;7.354;2023-06-10T00:20:05;97821.03;;;21.74;52.17
45247;BME280;31529;51.158;7.354;2023-06-10T00:20:42;97752.25;;;21.28;52.13
45247;BME280;31529;51.158;7.354;2023-06-10T00:21:13;97827.59;;;21.73;51.93
45247;BME280;31529;51.158;7.354;2023-06-10T00:21:44;97820.59;;;21.72;52.23
45247;BME280;31529;51.158;7.354;2023-06-10T00:22:15;97823.31;;;21.72;51.88
45247;BME280;31529;51.158;7.354;2023-06-10T00:22:47;97822.50;;;21.72;52.09
45247;BME280;31529;51.158;7.354;2023-06-10T00:23:19;97822.50;;;21.72;52.20
45247;BME280;31529;51.158;7.354;2023-06-10T00:23:51;97832.59;;;21.71;51.82
45247;BME280;31529;51.158;7.354;2023-06-10T00:24:22;97824.44;;;21.71;51.93
45247;BME280;31529;51.158;7.354;2023-06-10T00:24:53;97820.16;;;21.70;52.01
45247;BME280;31529;51.158;7.354;2023-06-10T00:25:24;97824.81;;;21.70;52.17
45247;BME280;31529;51.158;7.354;2023-06-10T00:25:58;97817.81;;;21.69;52.23
45247;BME280;31529;51.158;7.354;2023-06-10T00:26:29;97818.59;;;21.69;52.19
45247;BME280;31529;51.158;7.354;2023-06-10T00:27:01;97822.44;;;21.68;52.28
45247;BME280;31529;51.158;7.354;2023-06-10T00:27:32;97831.41;;;21.69;52.16
45247;BME280;31529;51.158;7.354;2023-06-10T00:28:05;97825.53;;;21.67;52.10
45247;BME280;31529;51.158;7.354;2023-06-10T00:28:36;97823.19;;;21.65;52.28
45247;BME280;31529;51.158;7.354;2023-06-10T00:29:08;97820.47;;;21.65;52.19
45247;BME280;31529;51.158;7.354;2023-06-10T00:29:39;97821.59;;;21.64;52.24
45247;BME280;31529;51.158;7.354;2023-06-10T00:30:10;97824.31;;;21.64;52.26
45247;BME280;31529;51.158;7.354;2023-06-10T00:30:42;97820.81;;;21.63;52.23
45247;BME280;31529;51.158;7.354;2023-06-10T00:31:13;97820.03;;;21.63;52.08
45247;BME280;31529;51.158;7.354;2023-06-10T00:31:44;97819.22;;;21.62;52.34
45247;BME280;31529;51.158;7.354;2023-06-10T00:32:16;97825.41;;;21.59;52.52
45247;BME280;31529;51.158;7.354;2023-06-10T00:32:47;97826.19;;;21.60;52.52
45247;BME280;31529;51.158;7.354;2023-06-10T00:33:18;97821.91;;;21.59;52.47
45247;BME280;31529;51.158;7.354;2023-06-10T00:33:49;97827.69;;;21.57;52.54
45247;BME280;31529;51.158;7.354;2023-06-10T00:34:21;97825.34;;;21.56;52.55
45247;BME280;31529;51.158;7.354;2023-06-10T00:34:52;97822.97;;;21.54;52.65
45247;BME280;31529;51.158;7.354;2023-06-10T00:35:23;97822.19;;;21.54;52.68
45247;BME280;31529;51.158;7.354;2023-06-10T00:35:54;97825.25;;;21.52;52.45
45247;BME280;31529;51.158;7.354;2023-06-10T00:36:25;97815.91;;;21.50;52.65
45247;BME280;31529;51.158;7.354;2023-06-10T00:36:57;97823.25;;;21.49;52.48
45247;BME280;31529;51.158;7.354;2023-06-10T00:37:28;97823.25;;;21.49;52.80
45247;BME280;31529;51.158;7.354;2023-06-10T00:38:00;97826.34;;;21.48;52.89
45247;BME280;31529;51.158;7.354;2023-06-10T00:38:31;97823.19;;;21.45;52.82
45247;BME280;31529;51.158;7.354;2023-06-10T00:39:02;97818.13;;;21.44;52.77
45247;BME280;31529;51.158;7.354;2023-06-10T00:39:35;97829.00;;;21.44;53.02
45247;BME280;31529;51.158;7.354;2023-06-10T00:40:06;97822.31;;;21.41;53.11
45247;BME280;31529;51.158;7.354;2023-06-10T00:40:40;97825.81;;;21.42;53.12
45247;BME280;31529;51.158;7.354;2023-06-10T00:41:11;97823.47;;;21.40;53.04
45247;BME280;31529;51.158;7.354;2023-06-10T00:41:42;97825.41;;;21.40;52.99
45247;BME280;31529;51.158;7.354;2023-06-10T00:42:13;97820.31;;;21.38;52.93
45247;BME280;31529;51.158;7.354;2023-06-10T00:42:45;97822.63;;;21.36;53.13
45247;BME280;31529;51.158;7.354;2023-06-10T00:43:16;97823.75;;;21.35;53.41
45247;BME280;31529;51.158;7.354;2023-06-10T00:43:47;97823.31;;;21.33;53.45
45247;BME280;31529;51.158;7.354;2023-06-10T00:44:18;97820.59;;;21.33;53.49
45247;BME280;31529;51.158;7.354;2023-06-10T00:44:53;97822.13;;;21.31;53.16
45247;BME280;31529;51.158;7.354;2023-06-10T00:45:25;97818.16;;;21.28;53.38
45247;BME280;31529;51.158;7.354;2023-06-10T00:45:56;97822.81;;;21.28;53.51
45247;BME280;31529;51.158;7.354;2023-06-10T00:46:27;97811.19;;;21.27;53.68
45247;BME280;31529;51.158;7.354;2023-06-10T00:46:58;97818.09;;;21.24;53.48
45247;BME280;31529;51.158;7.354;2023-06-10T00:47:30;97821.19;;;21.23;53.86
45247;BME280;31529;51.158;7.354;2023-06-10T00:48:02;97819.59;;;21.22;54.01
45247;BME280;31529;51.158;7.354;2023-06-10T00:48:35;97819.16;;;21.20;54.03
45247;BME280;31529;51.158;7.354;2023-06-10T00:49:07;97818.75;;;21.18;54.19
45247;BME280;31529;51.158;7.354;2023-06-10T00:49:38;97822.59;;;21.17;54.08
45247;BME280;31529;51.158;7.354;2023-06-10T00:50:09;97813.66;;;21.16;53.98
45247;BME280;31529;51.158;7.354;2023-06-10T00:50:44;97820.25;;;21.15;54.20
45247;BME280;31529;51.158;7.354;2023-06-10T00:51:17;97816.31;;;21.13;54.21
45247;BME280;31529;51.158;7.354;2023-06-10T00:51:49;97821.72;;;21.13;54.29
45247;BME280;31529;51.158;7.354;2023-06-10T00:52:22;97822.88;;;21.12;54.27
45247;BME280;31529;51.158;7.354;2023-06-10T00:52:58;97817.47;;;21.12;54.08
45247;BME280;31529;51.158;7.354;2023-06-10T00:53:30;97821.72;;;21.13;54.39
45247;BME280;31529;51.158;7.354;2023-06-10T00:54:03;97818.59;;;21.11;54.28
45247;BME280;31529;51.158;7.354;2023-06-10T00:54:36;97820.53;;;21.10;54.37
45247;BME280;31529;51.158;7.354;2023-06-10T00:55:08;97824.03;;;21.11;54.35
45247;BME280;31529;51.158;7.354;2023-06-10T00:55:40;97815.09;;;21.10;54.17
45247;BME280;31529;51.158;7.354;2023-06-10T00:56:11;97821.31;;;21.11;54.62
45247;BME280;31529;51.158;7.354;2023-06-10T00:56:44;97817.81;;;21.10;54.30
45247;BME280;31529;51.158;7.354;2023-06-10T00:57:15;97825.19;;;21.10;54.69
45247;BME280;31529;51.158;7.354;2023-06-10T00:57:46;97824.38;;;21.09;54.41
45247;BME280;31529;51.158;7.354;2023-06-10T00:58:22;97819.28;;;21.08;54.67
45247;BME280;31529;51.158;7.354;2023-06-10T00:58:54;97824.72;;;21.08;54.27
45247;BME280;31529;51.158;7.354;2023-06-10T00:59:25;97823.16;;;21.06;54.40
45247;BME280;31529;51.158;7.354;2023-06-10T00:59:56;97826.22;;;21.05;54.59
45247;BME280;31529;51.158;7.354;2023-06-10T01:00:28;97821.56;;;21.05;54.28
45247;BME280;31529;51.158;7.354;2023-06-10T01:00:59;97822.75;;;21.04;54.50
45247;BME280;31529;51.158;7.354;2023-06-10T01:01:31;97822.75;;;21.04;54.58
45247;BME280;31529;51.158;7.354;2023-06-10T01:02:03;97829.28;;;21.03;54.63
45247;BME280;31529;51.158;7.354;2023-06-10T01:02:34;97819.59;;;21.02;54.48
45247;BME280;31529;51.158;7.354;2023-06-10T01:03:05;97825.38;;;21.01;54.64
45247;BME280;31529;51.158;7.354;2023-06-10T01:03:39;97824.59;;;21.00;54.88
45247;BME280;31529;51.158;7.354;2023-06-10T01:04:10;97831.94;;;21.00;54.65
45247;BME280;31529;51.158;7.354;2023-06-10T01:04:43;97829.59;;;20.98;54.81
45247;BME280;31529;51.158;7.354;2023-06-10T01:05:14;97822.56;;;20.97;54.82
45247;BME280;31529;51.158;7.354;2023-06-10T01:05:47;97833.44;;;20.97;54.90
45247;BME280;31529;51.158;7.354;2023-06-10T01:06:45;97826.44;;;20.96;55.08
45247;BME280;31529;51.158;7.354;2023-06-10T01:07:43;97826.81;;;20.95;55.12
45247;BME280;31529;51.158;7.354;2023-06-10T01:08:19;97827.16;;;20.93;54.93
45247;BME280;31529;51.158;7.354;2023-06-10T01:10:04;97823.22;;;20.91;55.22
45247;BME280;31529;51.158;7.354;2023-06-10T01:11:16;97833.63;;;20.89;55.18
45247;BME280;31529;51.158;7.354;2023-06-10T01:11:58;97825.47;;;20.89;55.15
45247;BME280;31529;51.158;7.354;2023-06-10T01:12:41;97828.56;;;20.87;55.30
45247;BME280;31529;51.158;7.354;2023-06-10T01:13:19;97755.72;;;20.34;55.47
45247;BME280;31529;51.158;7.354;2023-06-10T01:13:54;97825.44;;;20.85;55.57
45247;BME280;31529;51.158;7.354;2023-06-10T01:14:26;97821.91;;;20.84;55.43
45247;BME280;31529;51.158;7.354;2023-06-10T01:14:58;97833.09;;;20.83;55.59
45247;BME280;31529;51.158;7.354;2023-06-10T01:15:31;97828.84;;;20.82;55.76
45247;BME280;31529;51.158;7.354;2023-06-10T01:16:03;97825.34;;;20.81;55.63
45247;BME280;31529;51.158;7.354;2023-06-10T01:16:35;97822.22;;;20.79;55.81
45247;BME280;31529;51.158;7.354;2023-06-10T01:17:07;97826.03;;;20.78;55.68
45247;BME280;31529;51.158;7.354;2023-06-10T01:17:53;97824.50;;;20.77;55.72
45247;BME280;31529;51.158;7.354;2023-06-10T01:18:32;97829.91;;;20.77;56.16
45247;BME280;31529;51.158;7.354;2023-06-10T01:19:03;97827.97;;;20.78;55.96
45247;BME280;31529;51.158;7.354;2023-06-10T01:19:34;97826.41;;;20.77;56.22
45247;BME280;31529;51.158;7.354;2023-06-10T01:20:07;97827.56;;;20.76;56.17
45247;BME280;31529;51.158;7.354;2023-06-10T01:20:43;97823.25;;;20.75;56.35
45247;BME280;31529;51.158;7.354;2023-06-10T01:21:21;97827.13;;;20.74;56.05
45247;BME280;31529;51.158;7.354;2023-06-10T01:21:55;97830.97;;;20.73;56.21
45247;BME280;31529;51.158;7.354;2023-06-10T01:22:26;97830.53;;;20.71;56.38
45247;BME280;31529;51.158;7.354;2023-06-10T01:23:02;97832.47;;;20.70;56.34
45247;BME280;31529;51.158;7.354;2023-06-10T01:23:34;97829.31;;;20.68;56.50
45247;BME280;31529;51.158;7.354;2023-06-10T01:24:05;97825.03;;;20.67;56.71
45247;BME280;31529;51.158;7.354;2023-06-10T01:24:38;97822.66;;;20.65;56.83
45247;BME280;31529;51.158;7.354;2023-06-10T01:25:11;97823.81;;;20.64;56.84
45247;BME280;31529;51.158;7.354;2023-06-10T01:26:02;97821.44;;;20.63;56.55
45247;BME280;31529;51.158;7.354;2023-06-10T01:26:38;97823.72;;;20.61;56.71
45247;BME280;31529;51.158;7.354;2023-06-10T01:27:12;97825.66;;;20.60;56.81
45247;BME280;31529;51.158;7.354;2023-06-10T01:27:46;97827.56;;;20.60;56.89
45247;BME280;31529;51.158;7.354;2023-06-10T01:29:28;97824.41;;;20.58;56.96
45247;BME280;31529;51.158;7.354;2023-06-10T01:30:11;97825.97;;;20.59;57.02
45247;BME280;31529;51.158;7.354;2023-06-10T01:31:06;97822.50;;;20.58;57.13
45247;BME280;31529;51.158;7.354;2023-06-10T01:31:43;97820.13;;;20.57;57.24
45247;BME280;31529;51.158;7.354;2023-06-10T01:32:21;97828.25;;;20.57;57.07
45247;BME280;31529;51.158;7.354;2023-06-10T01:33:00;97823.97;;;20.56;57.03
45247;BME280;31529;51.158;7.354;2023-06-10T01:33:34;97833.25;;;20.55;57.22
45247;BME280;31529;51.158;7.354;2023-06-10T01:34:12;97824.31;;;20.54;57.54
45247;BME280;31529;51.158;7.354;2023-06-10T01:34:47;97832.44;;;20.54;57.17
45247;BME280;31529;51.158;7.354;2023-06-10T01:35:19;97764.41;;;20.08;57.21
45247;BME280;31529;51.158;7.354;2023-06-10T01:35:56;97824.69;;;20.53;56.86
45247;BME280;31529;51.158;7.354;2023-06-10T01:36:29;97824.69;;;20.53;57.02
45247;BME280;31529;51.158;7.354;2023-06-10T01:37:02;97828.94;;;20.54;56.93
45247;BME280;31529;51.158;7.354;2023-06-10T01:37:34;97823.88;;;20.52;57.09
45247;BME280;31529;51.158;7.354;2023-06-10T01:38:08;97823.88;;;20.52;56.92
45247;BME280;31529;51.158;7.354;2023-06-10T01:38:45;97759.00;;;20.08;57.02
45247;BME280;31529;51.158;7.354;2023-06-10T01:39:20;97832.81;;;20.53;56.99
45247;BME280;31529;51.158;7.354;2023-06-10T01:39:55;97824.22;;;20.51;56.98
45247;BME280;31529;51.158;7.354;2023-06-10T01:40:29;97826.94;;;20.51;56.97
45247;BME280;31529;51.158;7.354;2023-06-10T01:41:01;97826.16;;;20.50;57.17
45247;BME280;31529;51.158;7.354;2023-06-10T01:41:34;97830.78;;;20.50;57.09
45247;BME280;31529;51.158;7.354;2023-06-10T01:42:06;97830.03;;;20.49;57.16
45247;BME280;31529;51.158;7.354;2023-06-10T01:42:38;97830.78;;;20.50;57.31
45247;BME280;31529;51.158;7.354;2023-06-10T01:43:10;97821.44;;;20.47;57.07
45247;BME280;31529;51.158;7.354;2023-06-10T01:43:42;97833.06;;;20.47;57.12
45247;BME280;31529;51.158;7.354;2023-06-10T01:44:17;97832.28;;;20.47;56.96
45247;BME280;31529;51.158;7.354;2023-06-10T01:44:49;97830.72;;;20.46;56.97
45247;BME280;31529;51.158;7.354;2023-06-10T01:45:21;97833.06;;;20.47;57.21
45247;BME280;31529;51.158;7.354;2023-06-10T01:45:52;97832.28;;;20.47;57.17
45247;BME280;31529;51.158;7.354;2023-06-10T01:46:23;97825.28;;;20.46;57.13
45247;BME280;31529;51.158;7.354;2023-06-10T01:46:54;97822.56;;;20.46;57.22
45247;BME280;31529;51.158;7.354;2023-06-10T01:47:25;97831.50;;;20.46;56.90
45247;BME280;31529;51.158;7.354;2023-06-10T01:47:56;97825.28;;;20.46;57.04
45247;BME280;31529;51.158;7.354;2023-06-10T01:48:27;97827.22;;;20.45;56.83
45247;BME280;31529;51.158;7.354;2023-06-10T01:48:58;97829.94;;;20.45;57.14
45247;BME280;31529;51.158;7.354;2023-06-10T01:49:30;97821.81;;;20.45;56.87
45247;BME280;31529;51.158;7.354;2023-06-10T01:50:01;97829.13;;;20.45;57.12
45247;BME280;31529;51.158;7.354;2023-06-10T01:50:32;97826.41;;;20.45;57.15
45247;BME280;31529;51.158;7.354;2023-06-10T01:51:03;97824.84;;;20.44;57.09
45247;BME280;31529;51.158;7.354;2023-06-10T01:51:34;97822.16;;;20.44;56.65
45247;BME280;31529;51.158;7.354;2023-06-10T01:52:06;97822.94;;;20.44;56.57
45247;BME280;31529;51.158;7.354;2023-06-10T01:52:38;97821.00;;;20.45;56.58
45247;BME280;31529;51.158;7.354;2023-06-10T01:53:09;97830.28;;;20.44;56.68
45247;BME280;31529;51.158;7.354;2023-06-10T01:53:40;97827.56;;;20.44;56.76
45247;BME280;31529;51.158;7.354;2023-06-10T01:54:11;97831.06;;;20.44;56.61
45247;BME280;31529;51.158;7.354;2023-06-10T01:54:42;97817.84;;;20.43;56.69
45247;BME280;31529;51.158;7.354;2023-06-10T01:55:13;97827.91;;;20.42;57.10
45247;BME280;31529;51.158;7.354;2023-06-10T01:55:45;97822.50;;;20.42;56.93
45247;BME280;31529;51.158;7.354;2023-06-10T01:56:16;97828.69;;;20.43;57.01
45247;BME280;31529;51.158;7.354;2023-06-10T01:56:50;97824.44;;;20.42;57.04
45247;BME280;31529;51.158;7.354;2023-06-10T01:57:21;97817.41;;;20.41;56.88
45247;BME280;31529;51.158;7.354;2023-06-10T01:57:55;97827.13;;;20.42;57.05
45247;BME280;31529;51.158;7.354;2023-06-10T01:58:26;97826.34;;;20.41;56.75
45247;BME280;31529;51.158;7.354;2023-06-10T01:58:57;97826.69;;;20.40;57.12
45247;BME280;31529;51.158;7.354;2023-06-10T01:59:29;97821.28;;;20.40;56.82
45247;BME280;31529;51.158;7.354;2023-06-10T02:00:01;97825.91;;;20.39;57.22
45247;BME280;31529;51.158;7.354;2023-06-10T02:00:32;97751.22;;;19.91;56.69
45247;BME280;31529;51.158;7.354;2023-06-10T02:01:03;97828.97;;;20.38;56.84
45247;BME280;31529;51.158;7.354;2023-06-10T02:01:34;97821.97;;;20.37;56.86
45247;BME280;31529;51.158;7.354;2023-06-10T02:02:05;97821.53;;;20.35;56.73
45247;BME280;31529;51.158;7.354;2023-06-10T02:02:36;97825.03;;;20.35;57.09
45247;BME280;31529;51.158;7.354;2023-06-10T02:03:08;97826.97;;;20.35;56.86
45247;BME280;31529;51.158;7.354;2023-06-10T02:03:39;97822.69;;;20.34;56.79
45247;BME280;31529;51.158;7.354;2023-06-10T02:04:10;97822.69;;;20.34;56.70
45247;BME280;31529;51.158;7.354;2023-06-10T02:04:41;97822.22;;;20.32;56.94
45247;BME280;31529;51.158;7.354;2023-06-10T02:05:13;97825.75;;;20.32;57.13
45247;BME280;31529;51.158;7.354;2023-06-10T02:05:44;97829.59;;;20.31;57.35
45247;BME280;31529;51.158;7.354;2023-06-10T02:06:15;97830.72;;;20.30;57.33
45247;BME280;31529;51.158;7.354;2023-06-10T02:06:46;97828.03;;;20.30;56.85
45247;BME280;31529;51.158;7.354;2023-06-10T02:07:17;97827.22;;;20.29;56.84
45247;BME280;31529;51.158;7.354;2023-06-10T02:07:49;97827.22;;;20.29;56.82
45247;BME280;31529;51.158;7.354;2023-06-10T02:08:20;97828.38;;;20.28;56.63
45247;BME280;31529;51.158;7.354;2023-06-10T02:08:51;97826.44;;;20.29;57.25
45247;BME280;31529;51.158;7.354;2023-06-10T02:09:22;97827.59;;;20.28;56.63
45247;BME280;31529;51.158;7.354;2023-06-10T02:09:53;97828.38;;;20.28;56.71
45247;BME280;31529;51.158;7.354;2023-06-10T02:10:24;97829.50;;;20.27;57.04
45247;BME280;31529;51.158;7.354;2023-06-10T02:10:55;97827.94;;;20.26;56.77
45247;BME280;31529;51.158;7.354;2023-06-10T02:11:27;97806.69;;;20.13;56.79
45247;BME280;31529;51.158;7.354;2023-06-10T02:11:58;97832.53;;;20.26;56.72
45247;BME280;31529;51.158;7.354;2023-06-10T02:12:29;97829.84;;;20.26;56.34
45247;BME280;31529;51.158;7.354;2023-06-10T02:13:00;97834.13;;;20.27;56.86
45247;BME280;31529;51.158;7.354;2023-06-10T02:13:31;97833.34;;;20.26;56.85
45247;BME280;31529;51.158;7.354;2023-06-10T02:14:02;97831.44;;;20.27;56.75
45247;BME280;31529;51.158;7.354;2023-06-10T02:14:34;97830.66;;;20.26;56.71
45247;BME280;31529;51.158;7.354;2023-06-10T02:15:05;97837.19;;;20.25;57.02
45247;BME280;31529;51.158;7.354;2023-06-10T02:15:36;97836.06;;;20.26;56.38
45247;BME280;31529;51.158;7.354;2023-06-10T02:16:07;97834.13;;;20.27;56.50
45247;BME280;31529;51.158;7.354;2023-06-10T02:16:38;97836.41;;;20.25;56.67
45247;BME280;31529;51.158;7.354;2023-06-10T02:17:10;97837.19;;;20.25;56.95
45247;BME280;31529;51.158;7.354;2023-06-10T02:17:43;97832.91;;;20.24;56.59
45247;BME280;31529;51.158;7.354;2023-06-10T02:18:15;97839.47;;;20.23;56.81
45247;BME280;31529;51.158;7.354;2023-06-10T02:18:46;97830.56;;;20.23;56.98
45247;BME280;31529;51.158;7.354;2023-06-10T02:19:19;97841.41;;;20.23;57.02
45247;BME280;31529;51.158;7.354;2023-06-10T02:19:52;97841.75;;;20.21;57.14
45247;BME280;31529;51.158;7.354;2023-06-10T02:20:23;97840.97;;;20.21;56.30
45247;BME280;31529;51.158;7.354;2023-06-10T02:20:54;97838.59;;;20.19;56.78
45247;BME280;31529;51.158;7.354;2023-06-10T02:21:25;97841.31;;;20.19;56.49
45247;BME280;31529;51.158;7.354;2023-06-10T02:21:56;97838.59;;;20.19;56.41
45247;BME280;31529;51.158;7.354;2023-06-10T02:22:27;97837.00;;;20.18;56.46
45247;BME280;31529;51.158;7.354;2023-06-10T02:22:59;97837.00;;;20.18;56.82
45247;BME280;31529;51.158;7.354;2023-06-10T02:23:30;97841.66;;;20.18;56.56
45247;BME280;31529;51.158;7.354;2023-06-10T02:24:01;97839.72;;;20.18;56.48
45247;BME280;31529;51.158;7.354;2023-06-10T02:24:32;97846.28;;;20.17;56.71
45247;BME280;31529;51.158;7.354;2023-06-10T02:25:04;97840.09;;;20.17;56.32
45247;BME280;31529;51.158;7.354;2023-06-10T02:25:36;97838.50;;;20.16;56.34
45247;BME280;31529;51.158;7.354;2023-06-10T02:26:07;97836.56;;;20.16;56.80
45247;BME280;31529;51.158;7.354;2023-06-10T02:26:38;97839.28;;;20.16;56.46
45247;BME280;31529;51.158;7.354;2023-06-10T02:27:09;97835.00;;;20.15;56.28
45247;BME280;31529;51.158;7.354;2023-06-10T02:27:43;97840.44;;;20.15;56.02
45247;BME280;31529;51.158;7.354;2023-06-10T02:28:14;97843.13;;;20.15;56.66
45247;BME280;31529;51.158;7.354;2023-06-10T02:28:45;97846.63;;;20.16;56.56
45247;BME280;31529;51.158;7.354;2023-06-10T02:29:16;97840.44;;;20.15;56.57
45247;BME280;31529;51.158;7.354;2023-06-10T02:29:47;97843.13;;;20.15;56.04
45247;BME280;31529;51.158;7.354;2023-06-10T02:30:18;97837.72;;;20.15;56.15
45247;BME280;31529;51.158;7.354;2023-06-10T02:30:49;97837.72;;;20.15;56.45
45247;BME280;31529;51.158;7.354;2023-06-10T02:31:22;97732.56;;;19.41;56.26
45247;BME280;31529;51.158;7.354;2023-06-10T02:31:55;97838.50;;;20.16;56.46
45247;BME280;31529;51.158;7.354;2023-06-10T02:32:27;97839.28;;;20.16;56.20
45247;BME280;31529;51.158;7.354;2023-06-10T02:32:58;97849.00;;;20.17;56.27
45247;BME280;31529;51.158;7.354;2023-06-10T02:33:30;97840.44;;;20.15;55.90
45247;BME280;31529;51.158;7.354;2023-06-10T02:34:01;97842.00;;;20.16;56.14
45247;BME280;31529;51.158;7.354;2023-06-10T02:34:33;97839.28;;;20.16;55.66
45247;BME280;31529;51.158;7.354;2023-06-10T02:35:05;97843.13;;;20.15;55.82
45247;BME280;31529;51.158;7.354;2023-06-10T02:35:37;97848.22;;;20.17;55.89
45247;BME280;31529;51.158;7.354;2023-06-10T02:36:09;97842.78;;;20.17;55.82
45247;BME280;31529;51.158;7.354;2023-06-10T02:36:44;97843.56;;;20.17;55.43
45247;BME280;31529;51.158;7.354;2023-06-10T02:37:15;97835.44;;;20.17;55.73
45247;BME280;31529;51.158;7.354;2023-06-10T02:37:46;97839.28;;;20.16;55.55
45247;BME280;31529;51.158;7.354;2023-06-10T02:38:17;97844.34;;;20.18;55.56
45247;BME280;31529;51.158;7.354;2023-06-10T02:38:48;97837.00;;;20.18;55.13
45247;BME280;31529;51.158;7.354;2023-06-10T02:39:21;97843.22;;;20.19;55.05
45247;BME280;31529;51.158;7.354;2023-06-10T02:39:52;97840.53;;;20.19;55.08
45247;BME280;31529;51.158;7.354;2023-06-10T02:40:23;97838.59;;;20.19;54.57
45247;BME280;31529;51.158;7.354;2023-06-10T02:40:54;97834.72;;;20.20;54.90
45247;BME280;31529;51.158;7.354;2023-06-10T02:41:25;97840.97;;;20.21;55.01
45247;BME280;31529;51.158;7.354;2023-06-10T02:41:57;97847.94;;;20.22;55.04
45247;BME280;31529;51.158;7.354;2023-06-10T02:42:28;97837.91;;;20.22;54.74
45247;BME280;31529;51.158;7.354;2023-06-10T02:42:59;97837.09;;;20.22;55.04
45247;BME280;31529;51.158;7.354;2023-06-10T02:43:30;97841.75;;;20.21;54.81
45247;BME280;31529;51.158;7.354;2023-06-10T02:44:01;97840.97;;;20.21;54.90
45247;BME280;31529;51.158;7.354;2023-06-10T02:44:32;97842.84;;;20.20;55.34
45247;BME280;31529;51.158;7.354;2023-06-10T02:45:04;97842.41;;;20.18;54.85
45247;BME280;31529;51.158;7.354;2023-06-10T02:45:35;97840.88;;;20.17;54.93
45247;BME280;31529;51.158;7.354;2023-06-10T02:46:06;97836.13;;;20.14;55.16
45247;BME280;31529;51.158;7.354;2023-06-10T02:46:37;97840.00;;;20.13;55.22
45247;BME280;31529;51.158;7.354;2023-06-10T02:47:09;97845.41;;;20.13;55.02
45247;BME280;31529;51.158;7.354;2023-06-10T02:47:40;97694.81;;;19.17;54.65
45247;BME280;31529;51.158;7.354;2023-06-10T02:48:12;97837.53;;;20.08;54.78
45247;BME280;31529;51.158;7.354;2023-06-10T02:48:45;97844.88;;;20.07;53.94
45247;BME280;31529;51.158;7.354;2023-06-10T02:49:16;97839.81;;;20.06;54.56
45247;BME280;31529;51.158;7.354;2023-06-10T02:49:47;97839.81;;;20.06;54.68
45247;BME280;31529;51.158;7.354;2023-06-10T02:50:19;97838.22;;;20.05;53.94
45247;BME280;31529;51.158;7.354;2023-06-10T02:50:50;97839.38;;;20.04;54.05
45247;BME280;31529;51.158;7.354;2023-06-10T02:51:21;97831.25;;;20.04;54.11
45247;BME280;31529;51.158;7.354;2023-06-10T02:51:52;97839.38;;;20.04;54.66
45247;BME280;31529;51.158;7.354;2023-06-10T02:52:24;97838.22;;;20.05;54.42
45247;BME280;31529;51.158;7.354;2023-06-10T02:52:55;97838.22;;;20.05;54.39
45247;BME280;31529;51.158;7.354;2023-06-10T02:53:26;97834.75;;;20.04;54.05
45247;BME280;31529;51.158;7.354;2023-06-10T02:53:57;97835.50;;;20.05;54.59
45247;BME280;31529;51.158;7.354;2023-06-10T02:54:28;97837.44;;;20.04;54.20
45247;BME280;31529;51.158;7.354;2023-06-10T02:55:00;97836.66;;;20.04;53.78